Time;durP1;ratioP1;P1;durP2;ratioP2;P2;SDS_P1;SDS_P2;PMS_P1;PMS_P2;Temp;Humidity;BMP_temperature;BMP_pressure;BME280_temperature;BME280_humidity;BME280_pressure;Samples;Min_cycle;Max_cycle;Signal;HPM_P1;HPM_P2
2022/03/20 00:01:07;;;;;;;11.32;5.57;;;;;;;4.66;28.54;101558.28;4483489;32;35256;-74
2022/03/20 00:03:35;;;;;;;10.77;5.47;;;;;;;4.78;28.49;101558.03;4483893;32;33614;-74
2022/03/20 00:06:03;;;;;;;14.60;6.28;;;;;;;4.67;28.53;101557.50;4457084;32;33877;-74
2022/03/20 00:08:31;;;;;;;11.77;5.50;;;;;;;4.60;28.60;101545.97;4457310;32;35152;-74
2022/03/20 00:11:01;;;;;;;12.88;5.30;;;;;;;4.44;28.90;101551.22;4470976;32;35163;-74
2022/03/20 00:13:30;;;;;;;9.88;5.07;;;;;;;4.39;29.08;101550.09;4457450;32;33568;-74
2022/03/20 00:15:59;;;;;;;11.55;5.57;;;;;;;4.61;28.98;101546.91;4460169;32;33204;-74
2022/03/20 00:18:27;;;;;;;12.48;5.57;;;;;;;4.69;28.70;101554.16;4468383;32;35102;-74
2022/03/20 00:20:57;;;;;;;10.38;5.32;;;;;;;4.74;28.94;101549.25;4460856;32;34897;-74
2022/03/20 00:23:25;;;;;;;10.15;5.47;;;;;;;4.18;29.62;101551.69;4470554;32;34162;-74
2022/03/20 00:25:54;;;;;;;18.02;6.65;;;;;;;4.18;29.52;101540.44;4470726;32;34003;-74
2022/03/20 00:28:23;;;;;;;9.85;5.93;;;;;;;4.14;29.58;101543.69;4457052;32;35281;-74
2022/03/20 00:30:52;;;;;;;10.05;5.10;;;;;;;4.16;29.60;101540.41;4456471;32;33279;-74
2022/03/20 00:33:21;;;;;;;8.98;6.12;;;;;;;4.91;28.71;101542.31;4457127;32;34167;-73
2022/03/20 00:35:49;;;;;;;9.43;5.37;;;;;;;4.66;28.92;101541.13;4466360;32;33794;-73
2022/03/20 00:38:17;;;;;;;10.98;5.50;;;;;;;4.49;29.47;101539.44;4486457;32;35822;-74
2022/03/20 00:40:46;;;;;;;11.27;6.40;;;;;;;4.39;29.29;101539.78;4475461;32;34398;-74
2022/03/20 00:43:14;;;;;;;12.77;7.12;;;;;;;4.94;28.77;101542.44;4456430;32;33558;-74
2022/03/20 00:45:42;;;;;;;10.30;6.18;;;;;;;4.99;28.56;101533.22;4469772;32;33952;-75
2022/03/20 00:48:10;;;;;;;13.82;5.40;;;;;;;4.49;29.50;101535.13;4456094;32;34940;-74
2022/03/20 00:50:37;;;;;;;10.55;6.25;;;;;;;4.21;29.71;101535.47;4469865;32;35188;-74
2022/03/20 00:53:05;;;;;;;11.00;5.40;;;;;;;3.79;30.78;101540.19;4470026;32;33600;-74
2022/03/20 00:55:33;;;;;;;9.05;5.22;;;;;;;3.83;30.67;101529.25;4469828;32;33812;-74
2022/03/20 00:58:01;;;;;;;13.00;6.05;;;;;;;3.93;30.61;101528.87;4470074;32;35100;-74
2022/03/20 01:00:31;;;;;;;12.77;6.55;;;;;;;4.09;30.18;101540.00;4455059;32;33798;-74
2022/03/20 01:03:00;;;;;;;13.55;6.25;;;;;;;3.79;30.95;101540.19;4456526;32;33691;-74
2022/03/20 01:05:28;;;;;;;12.85;5.75;;;;;;;3.50;31.35;101538.66;4469468;32;33980;-74
2022/03/20 01:07:59;;;;;;;7.62;5.20;;;;;;;3.87;31.13;101531.16;4469938;32;35915;-74
2022/03/20 01:10:27;;;;;;;10.38;5.97;;;;;;;3.76;31.29;101530.62;4472427;32;34328;-74
2022/03/20 01:12:55;;;;;;;13.32;6.72;;;;;;;3.99;31.08;101526.66;4455342;32;34373;-74
2022/03/20 01:15:23;;;;;;;15.93;6.03;;;;;;;3.70;31.63;101530.28;4474846;32;34005;-73
2022/03/20 01:17:51;;;;;;;11.65;5.97;;;;;;;4.21;30.68;101530.31;4482653;32;35038;-74
2022/03/20 01:20:19;;;;;;;12.37;7.20;;;;;;;3.77;31.35;101536.66;4469361;32;35188;-74
2022/03/20 01:22:47;;;;;;;14.38;6.45;;;;;;;3.62;31.66;101531.59;4469819;32;33528;-74
2022/03/20 01:25:19;;;;;;;11.18;5.82;;;;;;;3.51;32.01;101536.19;4469462;32;34844;-74
2022/03/20 01:27:47;;;;;;;13.25;6.55;;;;;;;3.52;31.88;101529.31;4469761;32;35126;-74
2022/03/20 01:30:15;;;;;;;10.93;5.90;;;;;;;3.82;31.76;101542.94;4469306;32;35275;-74
2022/03/20 01:32:43;;;;;;;9.98;5.78;;;;;;;3.58;31.72;101546.00;4469604;32;33860;-74
2022/03/20 01:35:11;;;;;;;10.65;5.90;;;;;;;3.92;31.67;101544.31;4469633;32;33877;-74
2022/03/20 01:37:42;;;;;;;10.38;6.05;;;;;;;3.82;31.93;101550.66;4469118;32;34858;-74
2022/03/20 01:40:11;;;;;;;13.62;6.22;;;;;;;3.58;32.14;101546.00;4467742;32;182931;-74
2022/03/20 01:42:39;;;;;;;12.40;5.72;;;;;;;3.61;32.09;101559.03;4486366;32;34435;-74
2022/03/20 01:45:12;;;;;;;11.12;5.35;;;;;;;3.46;32.42;101567.62;4482025;31;34805;-74
2022/03/20 01:47:40;;;;;;;14.68;6.43;;;;;;;3.25;33.15;101570.81;4456692;32;35050;-74
2022/03/20 01:50:09;;;;;;;13.50;7.18;;;;;;;3.04;33.16;101561.09;4469280;32;34297;-74
2022/03/20 01:52:36;;;;;;;11.07;6.20;;;;;;;3.15;32.89;101563.38;4470736;32;34379;-74
2022/03/20 01:55:06;;;;;;;14.10;6.72;;;;;;;3.51;32.49;101572.25;4456187;32;33897;-74
2022/03/20 01:57:37;;;;;;;12.43;6.35;;;;;;;3.17;33.02;101569.50;4470598;32;34983;-74
2022/03/20 02:00:07;;;;;;;11.75;5.32;;;;;;;2.97;33.70;101576.13;4456535;32;34443;-74
2022/03/20 02:02:39;;;;;;;12.48;6.12;;;;;;;3.28;32.97;101581.25;4457079;32;34443;-74
2022/03/20 02:05:09;;;;;;;10.35;5.05;;;;;;;3.32;32.93;101577.16;4456484;32;33996;-74
2022/03/20 02:07:40;;;;;;;13.62;6.35;;;;;;;3.67;32.57;101570.47;4470548;32;34928;-74
2022/03/20 02:10:09;;;;;;;9.60;5.93;;;;;;;2.95;33.63;101576.03;4460943;32;34397;-74
2022/03/20 02:12:37;;;;;;;18.77;6.20;;;;;;;3.31;33.38;101580.56;4471043;32;34290;-73
2022/03/20 02:15:09;;;;;;;11.05;6.37;;;;;;;2.49;34.59;101585.38;4471444;32;33924;-73
2022/03/20 02:17:38;;;;;;;13.07;5.95;;;;;;;3.01;33.89;101575.47;4469926;32;35127;-74
2022/03/20 02:20:08;;;;;;;9.93;5.75;;;;;;;2.72;34.49;101584.12;4457947;32;34517;-73
2022/03/20 02:22:43;;;;;;;9.20;5.25;;;;;;;2.70;35.25;101584.06;4486166;32;32775;-74
2022/03/20 02:25:14;;;;;;;11.93;6.00;;;;;;;2.74;34.88;101586.00;4468646;32;33901;-74
2022/03/20 02:27:44;;;;;;;10.82;6.10;;;;;;;2.63;34.77;101595.69;4456418;32;35218;-74
2022/03/20 02:30:15;;;;;;;11.70;6.18;;;;;;;2.67;35.00;101598.44;4469409;32;35303;-74
2022/03/20 02:32:48;;;;;;;10.77;6.15;;;;;;;2.54;35.06;101589.09;4455756;32;33448;-74
2022/03/20 02:35:18;;;;;;;10.45;6.03;;;;;;;2.65;34.96;101585.47;4472429;32;34756;-74
2022/03/20 02:37:48;;;;;;;13.02;6.72;;;;;;;2.83;34.82;101591.66;4459111;32;35893;-74
2022/03/20 02:40:20;;;;;;;11.10;6.32;;;;;;;2.38;35.56;101592.47;4482469;32;34416;-74
2022/03/20 02:42:48;;;;;;;8.30;4.65;;;;;;;2.60;35.14;101587.78;4456393;32;32724;-74
2022/03/20 02:45:22;;;;;;;13.62;6.60;;;;;;;2.99;34.61;101592.53;4455719;32;34029;-74
2022/03/20 02:47:51;;;;;;;10.10;5.43;;;;;;;2.09;36.14;101597.66;4456342;32;34991;-74
2022/03/20 02:50:28;;;;;;;13.07;6.05;;;;;;;2.73;35.21;101584.22;4468292;32;34436;-74
2022/03/20 02:53:03;;;;;;;;;;;;;;;2.69;35.24;101594.25;4456314;32;33142;-74
2022/03/20 02:55:36;;;;;;;12.00;5.53;;;;;;;2.33;36.05;101593.88;4455593;32;33540;-74
2022/03/20 02:58:12;;;;;;;14.27;6.25;;;;;;;2.25;35.93;101601.12;4469463;32;34946;-74
2022/03/20 03:00:41;;;;;;;15.10;6.65;;;;;;;1.96;36.74;101608.00;4473492;32;35259;-74
2022/03/20 03:03:13;;;;;;;11.60;5.93;;;;;;;2.11;36.54;101609.72;4471676;32;34318;-74
2022/03/20 03:05:42;;;;;;;13.88;6.78;;;;;;;2.13;36.45;101608.12;4468343;32;33372;-74
2022/03/20 03:10:59;;;;;;;12.27;6.40;;;;;;;1.69;37.54;101618.38;4484339;32;34495;-74
2022/03/20 03:13:30;;;;;;;10.98;5.75;;;;;;;1.59;37.97;101621.16;4471775;32;33482;-74
2022/03/20 03:16:02;;;;;;;13.52;6.28;;;;;;;1.79;37.54;101622.38;4468434;32;33196;-73
2022/03/20 03:18:30;;;;;;;9.20;5.68;;;;;;;1.63;37.74;101623.09;4456150;32;35133;-74
2022/03/20 03:20:59;;;;;;;10.88;6.07;;;;;;;1.66;38.15;101619.81;4455473;32;35288;-74
2022/03/20 03:23:28;;;;;;;11.20;5.40;;;;;;;2.03;37.19;101623.00;4455857;32;33540;-74
2022/03/20 03:25:57;;;;;;;14.10;7.35;;;;;;;1.96;37.38;101623.41;4455308;32;33765;-74
2022/03/20 03:28:33;;;;;;;13.10;6.97;;;;;;;1.62;38.19;101630.72;4455441;32;34300;-74
2022/03/20 03:31:05;;;;;;;13.52;6.22;;;;;;;1.42;38.64;101634.59;4458152;32;34378;-72
2022/03/20 03:33:34;;;;;;;13.95;5.80;;;;;;;1.45;38.74;101645.09;4469459;32;33531;-74
2022/03/20 03:36:02;;;;;;;15.30;7.30;;;;;;;1.43;38.77;101644.06;4454952;32;33720;-74
2022/03/20 03:38:35;;;;;;;13.90;6.32;;;;;;;1.39;38.87;101652.38;4442560;32;33585;-73
2022/03/20 03:41:03;;;;;;;13.25;6.35;;;;;;;1.00;39.77;101656.72;4456927;32;35150;-73
2022/03/20 03:43:32;;;;;;;13.68;7.07;;;;;;;1.10;39.81;101653.97;4453311;32;33392;-73
2022/03/20 03:45:59;;;;;;;12.77;6.90;;;;;;;1.77;38.46;101653.91;4458175;32;32423;-74
2022/03/20 03:48:27;;;;;;;14.57;7.32;;;;;;;1.21;39.58;101658.09;4448616;32;35284;-73
2022/03/20 03:50:56;;;;;;;11.93;6.93;;;;;;;1.41;39.30;101661.97;4450218;32;32380;-74
2022/03/20 03:53:23;;;;;;;21.67;7.90;;;;;;;1.64;38.97;101666.00;4459698;32;34204;-73
2022/03/20 03:55:51;;;;;;;16.65;7.87;;;;;;;1.34;39.54;101667.47;4459785;32;33962;-72
2022/03/20 03:58:19;;;;;;;13.45;7.82;;;;;;;1.14;39.93;101671.34;4458911;32;34915;-73
2022/03/20 04:00:47;;;;;;;14.02;6.50;;;;;;;0.99;40.38;101672.88;4459234;32;33407;-73
2022/03/20 04:03:18;;;;;;;12.85;7.25;;;;;;;1.20;40.23;101679.44;4459314;32;32948;-73
2022/03/20 04:05:47;;;;;;;14.75;7.50;;;;;;;1.47;39.67;101674.31;4457551;32;33486;-73
2022/03/20 04:08:16;;;;;;;15.93;8.50;;;;;;;1.83;38.96;101690.25;4448009;32;34941;-73
2022/03/20 04:10:44;;;;;;;14.48;8.77;;;;;;;1.11;40.36;101683.97;4458442;32;32818;-73
2022/03/20 04:13:12;;;;;;;14.23;7.40;;;;;;;1.77;39.10;101682.16;4458574;32;33613;-73
2022/03/20 04:15:41;;;;;;;16.30;7.62;;;;;;;1.24;40.02;101691.69;4460134;32;33964;-73
2022/03/20 04:18:10;;;;;;;15.95;8.23;;;;;;;1.25;40.22;101688.34;4461478;32;35025;-73
2022/03/20 04:20:37;;;;;;;15.57;8.45;;;;;;;0.89;41.01;101697.94;4459748;32;34468;-73
2022/03/20 04:25:52;;;;;;;15.73;8.30;;;;;;;1.28;40.53;101692.75;4461312;32;33860;-73
2022/03/20 04:28:21;;;;;;;22.95;10.93;;;;;;;0.66;42.13;101701.53;4462235;32;35800;-73
2022/03/20 04:30:49;;;;;;;18.40;8.88;;;;;;;0.67;42.29;101697.28;4460968;32;35216;-73
2022/03/20 04:33:17;;;;;;;13.10;7.95;;;;;;;0.68;42.12;101701.66;4462996;32;33438;-73
2022/03/20 04:35:45;;;;;;;18.77;8.95;;;;;;;1.06;41.30;101709.34;4461335;32;33960;-73
2022/03/20 04:38:13;;;;;;;18.60;8.43;;;;;;;0.74;42.45;101718.34;4461522;32;35094;-73
2022/03/20 04:40:41;;;;;;;13.52;7.70;;;;;;;0.80;42.48;101716.97;4471380;32;34188;-73
2022/03/20 04:43:09;;;;;;;16.27;8.45;;;;;;;0.65;43.23;101727.06;4470275;32;33022;-73
2022/03/20 04:45:37;;;;;;;18.73;8.52;;;;;;;0.08;45.10;101724.06;4455271;32;33090;-73
2022/03/20 04:59:11;;;;;;;19.47;9.60;;;;;;;0.72;43.50;101736.97;4477370;32;35884;-73
2022/03/20 05:01:39;;;;;;;16.58;9.55;;;;;;;0.74;43.31;101736.28;4477457;32;34529;-73
2022/03/20 05:04:09;;;;;;;18.25;8.43;;;;;;;0.74;43.51;101750.75;4462451;32;31893;-73
2022/03/20 05:06:37;;;;;;;19.15;9.15;;;;;;;0.88;43.54;101755.19;4462785;32;34500;-73
2022/03/20 05:14:38;;;;;;;22.67;9.40;;;;;;;0.84;43.43;101750.59;4460120;32;33129;-74
2022/03/20 05:17:09;;;;;;;17.98;8.63;;;;;;;0.64;44.21;101756.09;4472503;32;33824;-74
2022/03/20 05:19:40;;;;;;;17.37;9.18;;;;;;;1.31;43.50;101755.44;4470307;32;34957;-73
2022/03/20 05:22:12;;;;;;;19.70;8.80;;;;;;;0.56;44.14;101753.88;4461623;32;34551;-74
2022/03/20 05:24:40;;;;;;;16.77;8.75;;;;;;;0.47;44.74;101760.91;4485100;32;34220;-74
2022/03/20 05:27:09;;;;;;;17.37;8.82;;;;;;;1.14;44.35;101768.84;4458191;32;33642;-73
2022/03/20 05:29:38;;;;;;;15.48;7.10;;;;;;;1.98;43.24;101768.28;4470949;32;35778;-73
2022/03/20 05:32:07;;;;;;;12.88;7.62;;;;;;;2.75;40.57;101783.28;4470619;32;33764;-73
2022/03/20 05:34:36;;;;;;;15.02;8.35;;;;;;;3.68;38.96;101788.66;4472025;32;33520;-73
2022/03/20 05:37:07;;;;;;;17.15;8.90;;;;;;;4.13;37.07;101784.28;4462623;32;34802;-74
2022/03/20 05:39:35;;;;;;;20.00;10.18;;;;;;;3.93;38.42;101770.31;4456100;32;35328;-73
2022/03/20 05:42:03;;;;;;;15.43;8.20;;;;;;;4.74;36.72;101772.09;4456213;32;35098;-73
2022/03/20 05:44:33;;;;;;;13.30;8.85;;;;;;;4.99;35.83;101778.50;4456452;32;33797;-73
2022/03/20 05:47:01;;;;;;;14.52;7.70;;;;;;;4.54;37.04;101783.06;4455963;32;33253;-74
2022/03/20 05:49:29;;;;;;;16.85;8.48;;;;;;;4.41;37.44;101783.22;4449124;32;34231;-74
2022/03/20 05:51:57;;;;;;;16.37;8.48;;;;;;;4.79;36.56;101784.34;4457658;32;34527;-77
2022/03/20 05:54:25;;;;;;;14.75;8.13;;;;;;;5.03;35.95;101779.56;4485871;32;33004;-73
2022/03/20 05:59:39;;;;;;;14.67;7.37;;;;;;;4.33;36.92;101782.81;4485789;32;35890;-74
2022/03/20 06:02:09;;;;;;;17.00;7.00;;;;;;;4.34;37.33;101792.31;4462854;32;34094;-74
2022/03/20 06:04:38;;;;;;;13.02;7.53;;;;;;;4.19;37.69;101789.78;4470315;32;33564;-72
2022/03/20 06:07:08;;;;;;;12.05;6.87;;;;;;;3.98;38.22;101790.38;4477622;32;33928;-72
2022/03/20 06:09:37;;;;;;;19.98;8.18;;;;;;;4.82;36.69;101790.56;4473380;32;36576;-72
2022/03/20 06:12:07;;;;;;;12.80;7.80;;;;;;;4.86;36.82;101791.62;4460173;32;35135;-70
2022/03/20 06:14:35;;;;;;;18.02;7.90;;;;;;;4.79;36.10;101794.69;4462740;32;34328;-72
2022/03/20 06:17:05;;;;;;;19.12;8.38;;;;;;;5.00;36.00;101805.25;4474281;32;34110;-74
2022/03/20 06:19:35;;;;;;;17.37;8.68;;;;;;;5.95;34.81;101816.81;4455618;32;34581;-70
2022/03/20 06:22:04;;;;;;;13.00;8.27;;;;;;;5.72;33.78;101818.28;4472305;32;35067;-73
2022/03/20 06:24:32;;;;;;;15.77;7.90;;;;;;;6.52;33.21;101825.56;4471946;32;34302;-73
2022/03/20 06:27:03;;;;;;;16.73;7.80;;;;;;;5.98;33.92;101824.75;4486042;32;33986;-76
2022/03/20 06:29:31;;;;;;;16.55;7.70;;;;;;;6.20;33.88;101822.38;4485929;32;34445;-75
2022/03/20 06:31:59;;;;;;;13.40;7.65;;;;;;;6.82;32.02;101835.56;4472216;32;34495;-75
2022/03/20 06:34:27;;;;;;;13.43;7.05;;;;;;;6.41;33.02;101831.97;4484050;32;34563;-73
2022/03/20 06:36:57;;;;;;;17.42;7.78;;;;;;;6.58;32.12;101825.88;4485294;32;34762;-75
2022/03/20 06:39:25;;;;;;;12.73;6.68;;;;;;;6.36;33.08;101830.88;4471884;32;35429;-74
2022/03/20 06:41:54;;;;;;;10.85;7.12;;;;;;;6.51;31.87;101829.00;4471601;32;33955;-74
2022/03/20 06:44:21;;;;;;;13.70;7.43;;;;;;;5.82;33.00;101836.94;4471754;32;33550;-73
2022/03/20 06:46:49;;;;;;;11.68;6.62;;;;;;;6.35;32.10;101840.31;4471710;32;33955;-73
2022/03/20 06:49:18;;;;;;;10.88;6.78;;;;;;;7.00;31.13;101849.31;4485150;32;33537;-73
2022/03/20 06:51:47;;;;;;;15.10;7.47;;;;;;;6.92;30.62;101848.09;4456334;32;34533;-75
2022/03/20 06:54:14;;;;;;;11.48;7.12;;;;;;;6.96;30.89;101844.81;4469826;32;33583;-74
2022/03/20 06:56:42;;;;;;;15.77;7.45;;;;;;;6.95;31.15;101847.34;4455952;32;33917;-72
2022/03/20 06:59:14;;;;;;;15.77;8.80;;;;;;;6.71;31.53;101858.38;4469894;32;34655;-73
2022/03/20 07:01:41;;;;;;;18.33;8.95;;;;;;;7.15;31.28;101856.00;4470075;32;34552;-75
2022/03/20 07:04:11;;;;;;;13.00;6.97;;;;;;;7.46;31.48;101858.19;4469878;32;33537;-73
2022/03/20 07:06:40;;;;;;;14.27;7.60;;;;;;;7.42;31.33;101858.88;4469592;32;34610;-72
2022/03/20 07:09:07;;;;;;;13.95;8.00;;;;;;;7.10;31.09;101867.87;4469827;32;35154;-75
2022/03/20 07:11:36;;;;;;;14.57;8.68;;;;;;;7.37;30.74;101871.63;4469672;32;34376;-74
2022/03/20 07:14:04;;;;;;;14.15;6.82;;;;;;;7.30;30.89;101864.41;4469742;32;33538;-74
2022/03/20 07:16:33;;;;;;;11.45;6.90;;;;;;;7.22;30.74;101876.19;4469523;32;33931;-77
2022/03/20 07:19:02;;;;;;;17.75;8.02;;;;;;;6.69;31.75;101874.63;4461001;32;35925;-76
2022/03/20 07:21:32;;;;;;;11.23;6.97;;;;;;;7.00;31.85;101872.62;4471098;32;34299;-75
2022/03/20 07:24:02;;;;;;;13.65;6.85;;;;;;;7.54;31.13;101880.16;4466122;32;33636;-75
2022/03/20 07:29:30;;;;;;;12.32;6.75;;;;;;;7.10;31.38;101878.22;4469340;32;35119;-77
2022/03/20 07:32:06;;;;;;;14.68;6.97;;;;;;;7.63;30.76;101892.62;4469353;32;35188;-75
2022/03/20 07:34:35;;;;;;;11.13;7.43;;;;;;;7.82;30.14;101885.59;4455554;32;33564;-73
2022/03/20 07:37:04;;;;;;;11.65;7.05;;;;;;;7.67;30.48;101896.22;4455381;32;33982;-71
2022/03/20 07:39:35;;;;;;;13.90;7.22;;;;;;;7.45;30.51;101886.63;4455116;32;34996;-74
2022/03/20 07:42:04;;;;;;;15.48;7.43;;;;;;;7.60;30.28;101889.88;4455490;32;34439;-71
2022/03/20 07:44:36;;;;;;;13.45;7.95;;;;;;;8.62;28.95;101881.91;4455807;32;33587;-73
2022/03/20 07:47:08;;;;;;;14.95;7.65;;;;;;;8.47;29.33;101884.81;4455079;32;34610;-72
2022/03/20 07:49:37;;;;;;;17.15;8.38;;;;;;;8.56;29.38;101880.78;4444821;32;34387;-72
2022/03/20 07:52:06;;;;;;;13.25;7.32;;;;;;;8.75;29.01;101891.03;4457126;32;34306;-73
2022/03/20 07:54:36;;;;;;;11.38;7.12;;;;;;;8.62;29.00;101886.22;4471261;32;33866;-72
2022/03/20 07:57:07;;;;;;;11.12;6.78;;;;;;;8.76;28.68;101885.03;4457639;32;33090;-73
2022/03/20 07:59:36;;;;;;;11.88;7.60;;;;;;;8.91;28.70;101879.50;4470569;32;35119;-73
2022/03/20 08:02:06;;;;;;;14.38;8.18;;;;;;;8.90;28.88;101883.84;4455962;32;34447;-73
2022/03/20 08:04:36;;;;;;;11.73;7.68;;;;;;;9.05;27.81;101888.72;4456249;32;33465;-73
2022/03/20 08:07:06;;;;;;;10.63;7.00;;;;;;;8.66;28.81;101888.97;4472768;32;34002;-72
2022/03/20 08:09:35;;;;;;;12.55;7.57;;;;;;;8.78;28.29;101882.50;4471066;32;35155;-71
2022/03/20 08:12:07;;;;;;;20.83;7.18;;;;;;;8.53;28.94;101890.22;4461277;32;35580;-71
2022/03/20 08:14:57;;;;;;;12.30;7.40;;;;;;;8.85;28.12;101884.50;4485521;32;34527;-72
2022/03/20 08:17:29;;;;;;;12.13;7.32;;;;;;;8.84;28.56;101887.91;4485686;32;33864;-73
2022/03/20 08:20:02;;;;;;;13.13;7.37;;;;;;;8.40;28.71;101889.66;4485687;32;35926;-73
2022/03/20 08:22:30;;;;;;;13.68;7.45;;;;;;;8.82;28.43;101890.44;4471989;32;34265;-73
2022/03/20 08:24:58;;;;;;;13.73;7.43;;;;;;;9.04;27.83;101880.87;4472868;32;34397;-72
2022/03/20 08:27:26;;;;;;;11.43;6.97;;;;;;;9.43;27.50;101885.72;4471926;32;33871;-72
2022/03/20 08:29:56;;;;;;;12.95;8.15;;;;;;;9.80;26.79;101881.78;4483032;32;35136;-71
2022/03/20 08:32:25;;;;;;;17.45;9.18;;;;;;;8.97;27.44;101884.94;4470215;32;35252;-72
2022/03/20 08:34:53;;;;;;;12.00;6.20;;;;;;;8.99;28.31;101877.22;4456480;32;33447;-74
2022/03/20 08:37:21;;;;;;;11.93;5.85;;;;;;;8.71;27.14;101881.37;4456415;32;33182;-73
2022/03/20 08:39:49;;;;;;;10.20;6.30;;;;;;;9.46;26.87;101885.84;4470889;32;35004;-71
2022/03/20 08:42:17;;;;;;;12.60;6.37;;;;;;;9.37;26.63;101882.88;4475139;32;34551;-72
2022/03/20 08:44:45;;;;;;;11.52;6.35;;;;;;;9.08;27.21;101880.13;4485360;32;33484;-73
2022/03/20 08:47:13;;;;;;;10.30;5.00;;;;;;;8.49;27.59;101885.75;4482742;32;34666;-73
2022/03/20 08:49:40;;;;;;;12.35;5.30;;;;;;;8.60;27.32;101882.69;4486596;32;35226;-72
2022/03/20 08:52:08;;;;;;;10.38;5.62;;;;;;;8.99;27.46;101882.41;4485422;32;34382;-73
2022/03/20 08:54:36;;;;;;;14.07;6.03;;;;;;;8.58;27.57;101889.50;4471056;32;33679;-72
2022/03/20 08:57:06;;;;;;;8.75;5.65;;;;;;;8.71;27.65;101889.16;4467392;32;33894;-73
2022/03/20 08:59:34;;;;;;;14.87;7.37;;;;;;;8.86;28.34;101881.97;4470649;32;35948;-73
2022/03/20 09:02:03;;;;;;;12.48;7.20;;;;;;;9.00;28.20;101890.28;4472438;32;34507;-73
2022/03/20 09:04:31;;;;;;;10.45;5.47;;;;;;;9.58;26.47;101874.94;4486491;32;33549;-73
2022/03/20 09:06:59;;;;;;;15.05;5.57;;;;;;;9.20;27.21;101885.78;4484084;32;33941;-74
2022/03/20 09:09:27;;;;;;;11.30;6.45;;;;;;;9.60;26.23;101886.28;4486495;32;35163;-74
2022/03/20 09:11:55;;;;;;;11.75;6.03;;;;;;;9.76;25.83;101887.69;4484574;32;34596;-71
2022/03/20 09:14:23;;;;;;;11.65;6.55;;;;;;;10.05;25.66;101884.31;4470678;32;34396;-74
2022/03/20 09:19:37;;;;;;;10.10;5.15;;;;;;;10.25;25.09;101878.88;4473434;32;35904;-73
2022/03/20 09:22:06;;;;;;;8.88;5.15;;;;;;;9.81;25.92;101868.81;4456349;32;34314;-72
2022/03/20 09:24:36;;;;;;;13.02;5.97;;;;;;;10.05;25.67;101879.12;4463008;32;34364;-72
2022/03/20 09:27:05;;;;;;;10.63;5.95;;;;;;;10.12;25.42;101871.53;4483492;32;33883;-74
2022/03/20 09:29:33;;;;;;;11.90;5.87;;;;;;;10.04;25.58;101869.56;4478850;32;34969;-74
2022/03/20 09:32:00;;;;;;;11.75;6.50;;;;;;;10.13;25.45;101868.97;4472508;32;34356;-74
2022/03/20 09:34:32;;;;;;;11.35;5.82;;;;;;;10.75;24.63;101863.94;4470767;32;33381;-74
2022/03/20 09:37:01;;;;;;;10.57;5.87;;;;;;;10.97;24.75;101854.13;4456743;32;34881;-73
2022/03/20 09:39:28;;;;;;;12.18;6.43;;;;;;;10.66;24.75;101855.84;4456305;32;35968;-73
2022/03/20 09:41:56;;;;;;;10.57;6.25;;;;;;;11.17;23.83;101850.34;4458500;32;35133;-73
2022/03/20 09:44:25;;;;;;;8.32;5.53;;;;;;;11.47;23.87;101862.44;4456003;32;34341;-74
2022/03/20 09:46:53;;;;;;;11.52;6.35;;;;;;;11.15;23.61;101857.25;4456069;32;33967;-71
2022/03/20 09:49:25;;;;;;;9.63;5.82;;;;;;;10.93;23.76;101860.09;4471917;32;35995;-73
2022/03/20 09:51:54;;;;;;;9.93;5.30;;;;;;;10.74;24.43;101861.28;4470536;32;34443;-72
2022/03/20 09:54:22;;;;;;;8.80;5.47;;;;;;;10.10;24.56;101861.06;4470616;32;34466;-72
2022/03/20 09:56:51;;;;;;;12.23;6.70;;;;;;;11.08;23.56;101857.91;4455958;32;34747;-73
2022/03/20 09:59:20;;;;;;;11.10;5.93;;;;;;;10.73;23.68;101860.41;4467815;32;36560;-74
2022/03/20 10:01:47;;;;;;;13.77;5.93;;;;;;;11.01;23.81;101850.75;4470462;32;34431;-75
2022/03/20 10:04:16;;;;;;;8.55;5.22;;;;;;;11.41;23.22;101859.66;4469715;32;34361;-74
2022/03/20 10:06:45;;;;;;;8.82;5.20;;;;;;;12.41;21.89;101854.28;4470326;32;34064;-75
2022/03/20 10:09:13;;;;;;;11.57;5.03;;;;;;;12.53;21.76;101848.44;4470236;32;35019;-74
2022/03/20 10:11:50;;;;;;;8.30;5.07;;;;;;;12.52;21.58;101838.81;4485002;32;35246;-75
2022/03/20 10:14:20;;;;;;;11.60;5.45;;;;;;;13.05;22.64;101831.19;4476261;31;33559;-75
2022/03/20 10:17:06;;;;;;;7.62;5.30;;;;;;;12.78;22.91;101833.28;4455638;32;32265;-74
2022/03/20 10:19:34;;;;;;;10.30;4.80;;;;;;;12.68;21.48;101838.28;4473095;32;35045;-75
2022/03/20 10:22:09;;;;;;;11.65;5.78;;;;;;;13.31;20.73;101825.59;4470408;32;34575;-76
2022/03/20 10:24:39;;;;;;;14.95;7.47;;;;;;;12.93;21.48;101836.19;4470033;32;33447;-72
2022/03/20 10:27:09;;;;;;;9.50;5.70;;;;;;;13.86;22.10;101837.88;4456185;32;33115;-75
2022/03/20 10:29:47;;;;;;;11.10;5.85;;;;;;;13.15;21.03;101836.63;4471608;32;34894;-75
2022/03/20 10:32:15;;;;;;;11.82;5.65;;;;;;;14.00;20.39;101838.97;4469982;32;34425;-74
2022/03/20 10:34:52;;;;;;;11.93;6.15;;;;;;;13.97;20.53;101841.53;4465988;32;33295;-74
2022/03/20 10:37:41;;;;;;;8.60;5.22;;;;;;;12.70;21.26;101831.34;4469534;32;34759;-74
2022/03/20 10:40:11;;;;;;;10.88;5.68;;;;;;;13.97;20.97;101825.81;4470095;32;35048;-73
2022/03/20 10:42:39;;;;;;;8.70;5.50;;;;;;;14.87;19.52;101826.16;4458908;32;34196;-73
2022/03/20 10:45:08;;;;;;;8.40;5.30;;;;;;;14.89;19.59;101820.94;4485797;32;34343;-73
2022/03/20 10:47:36;;;;;;;11.50;6.05;;;;;;;15.20;19.86;101824.78;4466651;32;33653;-74
2022/03/20 10:50:07;;;;;;;10.82;6.60;;;;;;;14.91;21.20;101821.81;4469153;32;35036;-74
2022/03/20 10:52:38;;;;;;;10.00;6.25;;;;;;;15.03;20.33;101813.22;4469450;32;35321;-74
2022/03/20 10:55:10;;;;;;;8.52;5.30;;;;;;;14.87;21.03;101817.41;4470018;32;33555;-74
2022/03/20 10:57:39;;;;;;;9.52;6.00;;;;;;;15.16;19.26;101799.37;4446150;32;32165;-73
2022/03/20 11:00:10;;;;;;;9.23;5.82;;;;;;;15.69;18.72;101817.34;4485683;32;35811;-75
2022/03/20 11:02:40;;;;;;;9.63;5.70;;;;;;;16.07;18.09;101806.25;4467730;32;35057;-74
2022/03/20 11:05:09;;;;;;;11.18;6.35;;;;;;;16.35;18.43;101803.78;4455927;32;34288;-74
2022/03/20 11:07:37;;;;;;;16.52;6.25;;;;;;;16.73;17.47;101797.81;4457988;32;33745;-73
2022/03/20 11:10:11;;;;;;;9.63;5.30;;;;;;;15.46;18.60;101800.50;4485519;32;35916;-76
2022/03/20 11:12:41;;;;;;;10.65;5.70;;;;;;;15.73;17.78;101805.97;4468263;32;34541;-74
2022/03/20 11:15:09;;;;;;;11.45;6.12;;;;;;;14.87;18.87;101804.31;4469882;32;33450;-75
2022/03/20 11:17:43;;;;;;;12.45;5.78;;;;;;;15.23;18.47;101788.06;4445185;32;33865;-75
2022/03/20 11:20:13;;;;;;;8.40;5.07;;;;;;;16.02;18.03;101794.81;4485405;32;35087;-74
2022/03/20 11:22:49;;;;;;;12.37;5.60;;;;;;;15.39;18.25;101789.09;4484730;32;35321;-74
2022/03/20 11:25:22;;;;;;;13.52;5.75;;;;;;;15.19;17.70;101783.63;4485192;32;33709;-75
2022/03/20 11:28:03;;;;;;;11.15;6.43;;;;;;;13.71;19.35;101787.00;4482608;32;34734;-75
2022/03/20 11:30:33;;;;;;;8.35;5.30;;;;;;;13.37;19.87;101786.44;4457888;32;34984;-75
2022/03/20 11:33:02;;;;;;;11.95;7.55;;;;;;;13.92;19.43;101775.94;4470940;32;34534;-77
2022/03/20 11:35:33;;;;;;;12.05;6.80;;;;;;;13.55;19.79;101779.75;4457639;32;33501;-76
2022/03/20 11:38:20;;;;;;;11.68;6.53;;;;;;;13.63;20.29;101765.06;4446253;32;33104;-76
2022/03/20 11:41:08;;;;;;;17.12;5.57;;;;;;;15.84;18.49;101763.19;4457019;32;33710;-75
2022/03/20 11:43:38;;;;;;;9.55;5.55;;;;;;;15.66;18.36;101749.03;4471037;32;34321;-75
2022/03/20 11:46:12;;;;;;;13.27;6.45;;;;;;;15.77;17.91;101750.88;4448299;32;33560;-75
2022/03/20 11:48:40;;;;;;;12.80;5.90;;;;;;;15.52;18.63;101748.03;4471929;32;34145;-76
2022/03/20 11:51:08;;;;;;;8.57;5.80;;;;;;;15.14;17.84;101740.72;4487132;32;35059;-76
2022/03/20 11:53:40;;;;;;;11.38;5.22;;;;;;;15.68;17.65;101735.91;4471786;32;34277;-76
2022/03/20 11:56:30;;;;;;;10.88;5.75;;;;;;;14.42;18.82;101735.59;4474401;32;33605;-76
2022/03/20 11:58:58;;;;;;;8.90;5.90;;;;;;;14.77;18.48;101748.22;4462483;32;33634;-76
2022/03/20 12:01:26;;;;;;;12.02;6.37;;;;;;;13.11;19.95;101737.97;4471246;32;34762;-76
2022/03/20 12:04:07;;;;;;;12.50;6.30;;;;;;;14.16;19.19;101730.03;4470912;32;34374;-76
2022/03/20 12:06:34;;;;;;;8.85;5.78;;;;;;;13.31;19.56;101727.88;4456846;32;33473;-75